sensor_id;sensor_type;location;lat;lon;timestamp;P1;durP1;ratioP1;P2;durP2;ratioP2
53775;SDS011;44276;49.534;6.378;2022-10-26T00:01:21;10.18;;;3.40;;
53775;SDS011;44276;49.534;6.378;2022-10-26T00:03:49;12.30;;;3.60;;
53775;SDS011;44276;49.534;6.378;2022-10-26T00:06:18;6.72;;;2.60;;
53775;SDS011;44276;49.534;6.378;2022-10-26T00:08:51;3.45;;;2.70;;
53775;SDS011;44276;49.534;6.378;2022-10-26T00:11:20;7.63;;;3.10;;
53775;SDS011;44276;49.534;6.378;2022-10-26T00:13:49;6.80;;;2.45;;
53775;SDS011;44276;49.534;6.378;2022-10-26T00:16:20;5.50;;;2.78;;
53775;SDS011;44276;49.534;6.378;2022-10-26T00:18:50;8.27;;;2.55;;
53775;SDS011;44276;49.534;6.378;2022-10-26T00:21:18;7.28;;;2.72;;
53775;SDS011;44276;49.534;6.378;2022-10-26T00:23:46;5.82;;;2.55;;
53775;SDS011;44276;49.534;6.378;2022-10-26T00:26:15;4.30;;;3.28;;
53775;SDS011;44276;49.534;6.378;2022-10-26T00:28:44;7.65;;;2.97;;
53775;SDS011;44276;49.534;6.378;2022-10-26T00:31:12;4.88;;;2.90;;
53775;SDS011;44276;49.534;6.378;2022-10-26T00:33:42;6.45;;;3.15;;
53775;SDS011;44276;49.534;6.378;2022-10-26T00:36:12;9.07;;;4.05;;
53775;SDS011;44276;49.534;6.378;2022-10-26T00:38:41;6.80;;;2.85;;
53775;SDS011;44276;49.534;6.378;2022-10-26T00:41:16;8.13;;;2.45;;
53775;SDS011;44276;49.534;6.378;2022-10-26T00:43:46;8.98;;;2.67;;
53775;SDS011;44276;49.534;6.378;2022-10-26T00:46:15;8.60;;;3.20;;
53775;SDS011;44276;49.534;6.378;2022-10-26T00:48:49;17.13;;;3.88;;
53775;SDS011;44276;49.534;6.378;2022-10-26T00:51:22;13.50;;;4.78;;
53775;SDS011;44276;49.534;6.378;2022-10-26T00:53:58;12.10;;;3.33;;
53775;SDS011;44276;49.534;6.378;2022-10-26T00:56:31;8.88;;;4.82;;
53775;SDS011;44276;49.534;6.378;2022-10-26T00:59:03;8.55;;;2.53;;
53775;SDS011;44276;49.534;6.378;2022-10-26T01:01:36;9.30;;;3.22;;
53775;SDS011;44276;49.534;6.378;2022-10-26T01:04:09;8.13;;;3.30;;
53775;SDS011;44276;49.534;6.378;2022-10-26T01:06:40;11.05;;;4.15;;
53775;SDS011;44276;49.534;6.378;2022-10-26T01:09:09;6.25;;;3.03;;
53775;SDS011;44276;49.534;6.378;2022-10-26T01:11:40;12.85;;;2.75;;
53775;SDS011;44276;49.534;6.378;2022-10-26T01:14:09;6.75;;;2.55;;
53775;SDS011;44276;49.534;6.378;2022-10-26T01:16:43;12.80;;;2.60;;
53775;SDS011;44276;49.534;6.378;2022-10-26T01:19:41;5.85;;;3.15;;
53775;SDS011;44276;49.534;6.378;2022-10-26T01:23:02;7.18;;;3.50;;
53775;SDS011;44276;49.534;6.378;2022-10-26T01:25:40;12.70;;;2.63;;
53775;SDS011;44276;49.534;6.378;2022-10-26T01:28:39;5.90;;;3.13;;
53775;SDS011;44276;49.534;6.378;2022-10-26T01:31:33;9.52;;;2.97;;
53775;SDS011;44276;49.534;6.378;2022-10-26T01:34:10;8.27;;;3.78;;
53775;SDS011;44276;49.534;6.378;2022-10-26T01:36:48;11.18;;;2.78;;
53775;SDS011;44276;49.534;6.378;2022-10-26T01:39:24;8.02;;;3.45;;
53775;SDS011;44276;49.534;6.378;2022-10-26T01:42:02;6.10;;;2.47;;
53775;SDS011;44276;49.534;6.378;2022-10-26T01:44:35;7.20;;;2.92;;
53775;SDS011;44276;49.534;6.378;2022-10-26T01:47:10;4.20;;;2.03;;
53775;SDS011;44276;49.534;6.378;2022-10-26T01:49:42;8.98;;;2.67;;
53775;SDS011;44276;49.534;6.378;2022-10-26T01:52:17;5.35;;;2.40;;
53775;SDS011;44276;49.534;6.378;2022-10-26T01:54:46;7.80;;;3.38;;
53775;SDS011;44276;49.534;6.378;2022-10-26T01:57:14;6.80;;;2.58;;
53775;SDS011;44276;49.534;6.378;2022-10-26T01:59:59;5.53;;;3.05;;
53775;SDS011;44276;49.534;6.378;2022-10-26T02:05:49;4.00;;;2.90;;
53775;SDS011;44276;49.534;6.378;2022-10-26T02:08:40;12.18;;;3.83;;
53775;SDS011;44276;49.534;6.378;2022-10-26T02:11:25;10.88;;;3.42;;
53775;SDS011;44276;49.534;6.378;2022-10-26T02:14:08;6.22;;;2.80;;
53775;SDS011;44276;49.534;6.378;2022-10-26T02:16:47;9.73;;;3.08;;
53775;SDS011;44276;49.534;6.378;2022-10-26T02:19:31;12.30;;;4.03;;
53775;SDS011;44276;49.534;6.378;2022-10-26T02:22:08;6.93;;;3.05;;
53775;SDS011;44276;49.534;6.378;2022-10-26T02:24:45;8.95;;;3.05;;
53775;SDS011;44276;49.534;6.378;2022-10-26T02:27:18;7.97;;;2.65;;
53775;SDS011;44276;49.534;6.378;2022-10-26T02:29:54;7.97;;;2.58;;
53775;SDS011;44276;49.534;6.378;2022-10-26T02:32:26;6.30;;;1.98;;
53775;SDS011;44276;49.534;6.378;2022-10-26T02:35:01;8.15;;;2.65;;
53775;SDS011;44276;49.534;6.378;2022-10-26T02:37:32;8.20;;;2.58;;
53775;SDS011;44276;49.534;6.378;2022-10-26T02:40:05;5.07;;;2.30;;
53775;SDS011;44276;49.534;6.378;2022-10-26T02:42:39;6.88;;;2.58;;
53775;SDS011;44276;49.534;6.378;2022-10-26T02:45:13;5.43;;;1.90;;
53775;SDS011;44276;49.534;6.378;2022-10-26T02:47:45;7.95;;;1.85;;
53775;SDS011;44276;49.534;6.378;2022-10-26T02:50:15;5.53;;;2.47;;
53775;SDS011;44276;49.534;6.378;2022-10-26T02:52:46;7.70;;;2.10;;
53775;SDS011;44276;49.534;6.378;2022-10-26T02:55:24;7.03;;;3.22;;
53775;SDS011;44276;49.534;6.378;2022-10-26T02:57:59;5.70;;;2.60;;
53775;SDS011;44276;49.534;6.378;2022-10-26T03:00:34;5.72;;;2.47;;
53775;SDS011;44276;49.534;6.378;2022-10-26T03:03:03;10.10;;;2.50;;
53775;SDS011;44276;49.534;6.378;2022-10-26T03:05:33;6.03;;;2.30;;
53775;SDS011;44276;49.534;6.378;2022-10-26T03:08:02;8.20;;;3.13;;
53775;SDS011;44276;49.534;6.378;2022-10-26T03:10:30;4.93;;;2.70;;
53775;SDS011;44276;49.534;6.378;2022-10-26T03:13:00;9.88;;;2.90;;
53775;SDS011;44276;49.534;6.378;2022-10-26T03:15:29;14.30;;;3.38;;
53775;SDS011;44276;49.534;6.378;2022-10-26T03:17:57;9.95;;;2.75;;
53775;SDS011;44276;49.534;6.378;2022-10-26T03:20:25;15.35;;;4.57;;
53775;SDS011;44276;49.534;6.378;2022-10-26T03:22:54;12.95;;;4.15;;
53775;SDS011;44276;49.534;6.378;2022-10-26T03:25:23;11.45;;;4.30;;
53775;SDS011;44276;49.534;6.378;2022-10-26T03:27:55;6.25;;;3.58;;
53775;SDS011;44276;49.534;6.378;2022-10-26T03:30:24;5.93;;;3.30;;
53775;SDS011;44276;49.534;6.378;2022-10-26T03:32:54;5.43;;;3.63;;
53775;SDS011;44276;49.534;6.378;2022-10-26T03:35:22;8.63;;;3.38;;
53775;SDS011;44276;49.534;6.378;2022-10-26T03:37:50;11.02;;;3.55;;
53775;SDS011;44276;49.534;6.378;2022-10-26T03:40:20;10.10;;;3.90;;
53775;SDS011;44276;49.534;6.378;2022-10-26T03:42:48;8.32;;;3.65;;
53775;SDS011;44276;49.534;6.378;2022-10-26T03:45:16;11.13;;;4.93;;
53775;SDS011;44276;49.534;6.378;2022-10-26T03:47:45;14.55;;;6.25;;
53775;SDS011;44276;49.534;6.378;2022-10-26T03:50:15;12.45;;;5.25;;
53775;SDS011;44276;49.534;6.378;2022-10-26T03:52:47;14.70;;;5.07;;
53775;SDS011;44276;49.534;6.378;2022-10-26T03:55:17;7.22;;;5.05;;
53775;SDS011;44276;49.534;6.378;2022-10-26T03:57:46;13.02;;;5.07;;
53775;SDS011;44276;49.534;6.378;2022-10-26T04:00:15;6.53;;;4.10;;
53775;SDS011;44276;49.534;6.378;2022-10-26T04:02:45;17.17;;;5.20;;
53775;SDS011;44276;49.534;6.378;2022-10-26T04:05:21;9.02;;;5.03;;
53775;SDS011;44276;49.534;6.378;2022-10-26T04:07:53;8.52;;;4.45;;
53775;SDS011;44276;49.534;6.378;2022-10-26T04:10:22;8.13;;;4.03;;
53775;SDS011;44276;49.534;6.378;2022-10-26T04:12:53;10.63;;;4.75;;
53775;SDS011;44276;49.534;6.378;2022-10-26T04:15:22;23.65;;;7.43;;
53775;SDS011;44276;49.534;6.378;2022-10-26T04:17:54;14.07;;;5.13;;
53775;SDS011;44276;49.534;6.378;2022-10-26T04:20:23;10.75;;;4.72;;
53775;SDS011;44276;49.534;6.378;2022-10-26T04:22:56;9.32;;;4.60;;
53775;SDS011;44276;49.534;6.378;2022-10-26T04:25:26;8.25;;;5.18;;
53775;SDS011;44276;49.534;6.378;2022-10-26T04:27:59;9.48;;;4.07;;
53775;SDS011;44276;49.534;6.378;2022-10-26T04:30:29;9.95;;;4.30;;
53775;SDS011;44276;49.534;6.378;2022-10-26T04:32:58;8.77;;;3.95;;
53775;SDS011;44276;49.534;6.378;2022-10-26T04:35:27;9.70;;;3.83;;
53775;SDS011;44276;49.534;6.378;2022-10-26T04:37:56;11.25;;;4.28;;
53775;SDS011;44276;49.534;6.378;2022-10-26T04:40:25;8.40;;;3.50;;
53775;SDS011;44276;49.534;6.378;2022-10-26T04:42:53;6.88;;;4.20;;
53775;SDS011;44276;49.534;6.378;2022-10-26T04:45:23;7.55;;;3.97;;
53775;SDS011;44276;49.534;6.378;2022-10-26T04:48:00;9.77;;;4.25;;
53775;SDS011;44276;49.534;6.378;2022-10-26T04:50:31;5.32;;;3.60;;
53775;SDS011;44276;49.534;6.378;2022-10-26T04:53:00;11.02;;;3.38;;
53775;SDS011;44276;49.534;6.378;2022-10-26T04:55:29;7.38;;;4.00;;
53775;SDS011;44276;49.534;6.378;2022-10-26T04:57:57;8.27;;;4.40;;
53775;SDS011;44276;49.534;6.378;2022-10-26T05:00:28;8.07;;;3.20;;
53775;SDS011;44276;49.534;6.378;2022-10-26T05:02:58;32.92;;;5.43;;
53775;SDS011;44276;49.534;6.378;2022-10-26T05:05:28;7.78;;;3.50;;
53775;SDS011;44276;49.534;6.378;2022-10-26T05:07:59;4.72;;;3.38;;
53775;SDS011;44276;49.534;6.378;2022-10-26T05:10:27;8.20;;;3.45;;
53775;SDS011;44276;49.534;6.378;2022-10-26T05:12:56;8.52;;;2.92;;
53775;SDS011;44276;49.534;6.378;2022-10-26T05:15:29;11.13;;;4.47;;
53775;SDS011;44276;49.534;6.378;2022-10-26T05:17:58;6.97;;;3.50;;
53775;SDS011;44276;49.534;6.378;2022-10-26T05:20:31;8.82;;;3.67;;
53775;SDS011;44276;49.534;6.378;2022-10-26T05:23:02;13.82;;;4.57;;
53775;SDS011;44276;49.534;6.378;2022-10-26T05:25:34;6.18;;;3.33;;
53775;SDS011;44276;49.534;6.378;2022-10-26T05:28:04;16.92;;;4.20;;
53775;SDS011;44276;49.534;6.378;2022-10-26T05:30:38;9.68;;;3.53;;
53775;SDS011;44276;49.534;6.378;2022-10-26T05:33:07;9.05;;;3.92;;
53775;SDS011;44276;49.534;6.378;2022-10-26T05:35:37;7.40;;;3.85;;
53775;SDS011;44276;49.534;6.378;2022-10-26T05:38:06;10.85;;;3.38;;
53775;SDS011;44276;49.534;6.378;2022-10-26T05:40:35;10.93;;;3.47;;
53775;SDS011;44276;49.534;6.378;2022-10-26T05:43:03;8.40;;;3.38;;
53775;SDS011;44276;49.534;6.378;2022-10-26T05:45:32;8.75;;;4.25;;
53775;SDS011;44276;49.534;6.378;2022-10-26T05:48:01;10.25;;;4.32;;
53775;SDS011;44276;49.534;6.378;2022-10-26T05:50:30;6.75;;;3.22;;
53775;SDS011;44276;49.534;6.378;2022-10-26T05:52:58;9.10;;;3.33;;
53775;SDS011;44276;49.534;6.378;2022-10-26T05:55:26;6.97;;;3.58;;
53775;SDS011;44276;49.534;6.378;2022-10-26T05:57:55;8.20;;;3.85;;
53775;SDS011;44276;49.534;6.378;2022-10-26T06:00:25;8.65;;;3.35;;
53775;SDS011;44276;49.534;6.378;2022-10-26T06:02:59;10.38;;;2.90;;
53775;SDS011;44276;49.534;6.378;2022-10-26T06:05:50;7.95;;;3.15;;
53775;SDS011;44276;49.534;6.378;2022-10-26T06:08:21;12.38;;;3.75;;
53775;SDS011;44276;49.534;6.378;2022-10-26T06:10:52;9.82;;;3.33;;
53775;SDS011;44276;49.534;6.378;2022-10-26T06:13:24;22.33;;;3.83;;
53775;SDS011;44276;49.534;6.378;2022-10-26T06:16:01;5.72;;;3.03;;
53775;SDS011;44276;49.534;6.378;2022-10-26T06:18:51;11.25;;;3.67;;
53775;SDS011;44276;49.534;6.378;2022-10-26T06:21:36;12.00;;;4.28;;
53775;SDS011;44276;49.534;6.378;2022-10-26T06:24:21;8.50;;;3.83;;
53775;SDS011;44276;49.534;6.378;2022-10-26T06:27:02;14.25;;;5.07;;
53775;SDS011;44276;49.534;6.378;2022-10-26T06:29:48;7.78;;;4.35;;
53775;SDS011;44276;49.534;6.378;2022-10-26T06:32:23;10.50;;;5.60;;
53775;SDS011;44276;49.534;6.378;2022-10-26T06:34:55;10.45;;;4.28;;
53775;SDS011;44276;49.534;6.378;2022-10-26T06:37:37;11.48;;;3.80;;
53775;SDS011;44276;49.534;6.378;2022-10-26T06:40:07;16.02;;;4.45;;
53775;SDS011;44276;49.534;6.378;2022-10-26T06:42:40;11.15;;;4.65;;
53775;SDS011;44276;49.534;6.378;2022-10-26T06:45:10;10.48;;;3.78;;
53775;SDS011;44276;49.534;6.378;2022-10-26T06:47:42;14.65;;;4.13;;
53775;SDS011;44276;49.534;6.378;2022-10-26T06:50:30;12.10;;;4.97;;
53775;SDS011;44276;49.534;6.378;2022-10-26T06:53:11;8.40;;;4.00;;
53775;SDS011;44276;49.534;6.378;2022-10-26T06:55:49;8.15;;;4.43;;
53775;SDS011;44276;49.534;6.378;2022-10-26T06:58:18;7.47;;;4.70;;
53775;SDS011;44276;49.534;6.378;2022-10-26T07:00:51;7.88;;;4.07;;
53775;SDS011;44276;49.534;6.378;2022-10-26T07:03:21;7.95;;;4.22;;
53775;SDS011;44276;49.534;6.378;2022-10-26T07:05:51;15.88;;;3.92;;
53775;SDS011;44276;49.534;6.378;2022-10-26T07:08:19;10.93;;;3.72;;
53775;SDS011;44276;49.534;6.378;2022-10-26T07:10:47;8.57;;;3.35;;
53775;SDS011;44276;49.534;6.378;2022-10-26T07:13:16;5.13;;;3.05;;
53775;SDS011;44276;49.534;6.378;2022-10-26T07:15:44;9.13;;;3.10;;
53775;SDS011;44276;49.534;6.378;2022-10-26T07:18:13;7.22;;;4.55;;
53775;SDS011;44276;49.534;6.378;2022-10-26T07:20:41;8.27;;;3.33;;
53775;SDS011;44276;49.534;6.378;2022-10-26T07:23:11;9.25;;;3.55;;
53775;SDS011;44276;49.534;6.378;2022-10-26T07:25:41;8.98;;;3.50;;
53775;SDS011;44276;49.534;6.378;2022-10-26T07:28:09;6.68;;;1.83;;
53775;SDS011;44276;49.534;6.378;2022-10-26T07:30:38;7.35;;;2.97;;
53775;SDS011;44276;49.534;6.378;2022-10-26T07:33:07;9.13;;;3.08;;
53775;SDS011;44276;49.534;6.378;2022-10-26T07:35:38;5.65;;;2.33;;
53775;SDS011;44276;49.534;6.378;2022-10-26T07:38:07;4.78;;;2.47;;
53775;SDS011;44276;49.534;6.378;2022-10-26T07:40:37;8.30;;;3.15;;
53775;SDS011;44276;49.534;6.378;2022-10-26T07:43:05;9.50;;;2.33;;
53775;SDS011;44276;49.534;6.378;2022-10-26T07:45:33;10.82;;;3.03;;
53775;SDS011;44276;49.534;6.378;2022-10-26T07:48:02;6.38;;;2.63;;
53775;SDS011;44276;49.534;6.378;2022-10-26T07:50:31;5.63;;;2.70;;
53775;SDS011;44276;49.534;6.378;2022-10-26T07:52:59;6.38;;;2.42;;
53775;SDS011;44276;49.534;6.378;2022-10-26T07:55:27;5.10;;;2.03;;
53775;SDS011;44276;49.534;6.378;2022-10-26T07:57:57;3.38;;;1.70;;
53775;SDS011;44276;49.534;6.378;2022-10-26T08:00:25;15.75;;;2.25;;
53775;SDS011;44276;49.534;6.378;2022-10-26T08:02:55;5.97;;;2.17;;
53775;SDS011;44276;49.534;6.378;2022-10-26T08:05:23;7.18;;;2.63;;
53775;SDS011;44276;49.534;6.378;2022-10-26T08:07:51;5.57;;;2.25;;
53775;SDS011;44276;49.534;6.378;2022-10-26T08:10:20;11.68;;;2.53;;
53775;SDS011;44276;49.534;6.378;2022-10-26T08:12:50;9.32;;;3.03;;
53775;SDS011;44276;49.534;6.378;2022-10-26T08:15:21;16.92;;;4.32;;
53775;SDS011;44276;49.534;6.378;2022-10-26T08:17:50;10.55;;;3.10;;
53775;SDS011;44276;49.534;6.378;2022-10-26T08:20:18;4.18;;;2.25;;
53775;SDS011;44276;49.534;6.378;2022-10-26T08:22:46;4.63;;;2.30;;
53775;SDS011;44276;49.534;6.378;2022-10-26T08:25:15;5.93;;;1.67;;
53775;SDS011;44276;49.534;6.378;2022-10-26T08:27:46;7.25;;;2.13;;
53775;SDS011;44276;49.534;6.378;2022-10-26T08:30:15;3.70;;;1.88;;
53775;SDS011;44276;49.534;6.378;2022-10-26T08:32:45;7.43;;;2.47;;
53775;SDS011;44276;49.534;6.378;2022-10-26T08:35:14;4.40;;;2.10;;
53775;SDS011;44276;49.534;6.378;2022-10-26T08:37:42;9.57;;;2.03;;
53775;SDS011;44276;49.534;6.378;2022-10-26T08:40:13;3.00;;;1.45;;
53775;SDS011;44276;49.534;6.378;2022-10-26T08:42:44;3.65;;;1.60;;
53775;SDS011;44276;49.534;6.378;2022-10-26T08:45:21;5.03;;;1.70;;
53775;SDS011;44276;49.534;6.378;2022-10-26T08:48:04;2.15;;;1.30;;
53775;SDS011;44276;49.534;6.378;2022-10-26T08:50:42;7.22;;;2.05;;
53775;SDS011;44276;49.534;6.378;2022-10-26T08:53:17;6.15;;;1.23;;
53775;SDS011;44276;49.534;6.378;2022-10-26T08:55:55;5.70;;;1.70;;
53775;SDS011;44276;49.534;6.378;2022-10-26T09:01:06;5.70;;;1.73;;
53775;SDS011;44276;49.534;6.378;2022-10-26T09:03:37;4.68;;;1.90;;
53775;SDS011;44276;49.534;6.378;2022-10-26T09:06:11;4.22;;;1.48;;
53775;SDS011;44276;49.534;6.378;2022-10-26T09:08:52;5.32;;;1.92;;
53775;SDS011;44276;49.534;6.378;2022-10-26T09:11:35;5.05;;;1.40;;
53775;SDS011;44276;49.534;6.378;2022-10-26T09:14:20;3.70;;;1.58;;
53775;SDS011;44276;49.534;6.378;2022-10-26T09:17:07;6.83;;;1.80;;
53775;SDS011;44276;49.534;6.378;2022-10-26T09:19:58;4.60;;;1.20;;
53775;SDS011;44276;49.534;6.378;2022-10-26T09:22:52;6.43;;;1.13;;
53775;SDS011;44276;49.534;6.378;2022-10-26T09:25:33;4.82;;;1.17;;
53775;SDS011;44276;49.534;6.378;2022-10-26T09:28:08;6.03;;;1.35;;
53775;SDS011;44276;49.534;6.378;2022-10-26T09:30:44;4.68;;;1.30;;
53775;SDS011;44276;49.534;6.378;2022-10-26T09:33:14;5.38;;;1.75;;
53775;SDS011;44276;49.534;6.378;2022-10-26T09:35:47;7.32;;;1.63;;
53775;SDS011;44276;49.534;6.378;2022-10-26T09:38:23;6.43;;;1.63;;
53775;SDS011;44276;49.534;6.378;2022-10-26T09:40:58;3.38;;;1.13;;
53775;SDS011;44276;49.534;6.378;2022-10-26T09:43:34;7.15;;;1.52;;
53775;SDS011;44276;49.534;6.378;2022-10-26T09:46:12;4.20;;;1.33;;
53775;SDS011;44276;49.534;6.378;2022-10-26T09:48:48;4.25;;;1.73;;
53775;SDS011;44276;49.534;6.378;2022-10-26T09:51:23;5.95;;;1.83;;
53775;SDS011;44276;49.534;6.378;2022-10-26T09:53:53;6.85;;;2.05;;
53775;SDS011;44276;49.534;6.378;2022-10-26T09:56:24;5.43;;;2.40;;
53775;SDS011;44276;49.534;6.378;2022-10-26T09:58:55;4.38;;;1.55;;
53775;SDS011;44276;49.534;6.378;2022-10-26T10:01:31;5.07;;;2.17;;
53775;SDS011;44276;49.534;6.378;2022-10-26T10:04:08;5.72;;;1.30;;
53775;SDS011;44276;49.534;6.378;2022-10-26T10:07:10;4.40;;;1.20;;
53775;SDS011;44276;49.534;6.378;2022-10-26T10:09:40;3.13;;;1.05;;
53775;SDS011;44276;49.534;6.378;2022-10-26T10:12:17;8.70;;;2.08;;
53775;SDS011;44276;49.534;6.378;2022-10-26T10:14:54;5.78;;;1.75;;
53775;SDS011;44276;49.534;6.378;2022-10-26T10:17:25;3.28;;;1.52;;
53775;SDS011;44276;49.534;6.378;2022-10-26T10:19:54;5.57;;;2.17;;
53775;SDS011;44276;49.534;6.378;2022-10-26T10:22:52;5.45;;;1.65;;
53775;SDS011;44276;49.534;6.378;2022-10-26T10:25:30;5.53;;;1.40;;
53775;SDS011;44276;49.534;6.378;2022-10-26T10:28:02;3.13;;;1.20;;
53775;SDS011;44276;49.534;6.378;2022-10-26T10:30:50;8.68;;;1.67;;
53775;SDS011;44276;49.534;6.378;2022-10-26T10:33:22;6.43;;;1.20;;
53775;SDS011;44276;49.534;6.378;2022-10-26T10:36:00;4.90;;;2.13;;
53775;SDS011;44276;49.534;6.378;2022-10-26T10:38:37;2.80;;;0.95;;
53775;SDS011;44276;49.534;6.378;2022-10-26T10:41:15;9.00;;;2.80;;
53775;SDS011;44276;49.534;6.378;2022-10-26T10:43:50;3.70;;;0.90;;
53775;SDS011;44276;49.534;6.378;2022-10-26T10:46:23;4.70;;;1.48;;
53775;SDS011;44276;49.534;6.378;2022-10-26T10:49:00;3.22;;;1.10;;
53775;SDS011;44276;49.534;6.378;2022-10-26T10:51:35;4.80;;;0.73;;
53775;SDS011;44276;49.534;6.378;2022-10-26T10:54:14;3.33;;;1.13;;
53775;SDS011;44276;49.534;6.378;2022-10-26T10:56:52;4.00;;;1.35;;
53775;SDS011;44276;49.534;6.378;2022-10-26T10:59:38;5.40;;;1.20;;
53775;SDS011;44276;49.534;6.378;2022-10-26T11:02:37;3.78;;;0.77;;
53775;SDS011;44276;49.534;6.378;2022-10-26T11:05:55;6.15;;;1.58;;
53775;SDS011;44276;49.534;6.378;2022-10-26T11:08:34;3.60;;;1.52;;
53775;SDS011;44276;49.534;6.378;2022-10-26T11:11:10;5.40;;;1.00;;
53775;SDS011;44276;49.534;6.378;2022-10-26T11:13:49;4.38;;;1.00;;
53775;SDS011;44276;49.534;6.378;2022-10-26T11:16:24;2.83;;;1.30;;
53775;SDS011;44276;49.534;6.378;2022-10-26T11:19:01;5.55;;;1.25;;
53775;SDS011;44276;49.534;6.378;2022-10-26T11:21:42;1.85;;;1.23;;
53775;SDS011;44276;49.534;6.378;2022-10-26T11:24:19;2.00;;;0.52;;
53775;SDS011;44276;49.534;6.378;2022-10-26T11:26:57;4.60;;;1.73;;
53775;SDS011;44276;49.534;6.378;2022-10-26T11:29:39;3.10;;;1.35;;
53775;SDS011;44276;49.534;6.378;2022-10-26T11:32:19;7.00;;;1.48;;
53775;SDS011;44276;49.534;6.378;2022-10-26T11:34:53;2.22;;;0.77;;
53775;SDS011;44276;49.534;6.378;2022-10-26T11:37:33;5.88;;;1.42;;
53775;SDS011;44276;49.534;6.378;2022-10-26T11:40:15;5.07;;;1.30;;
53775;SDS011;44276;49.534;6.378;2022-10-26T11:42:59;3.85;;;0.90;;
53775;SDS011;44276;49.534;6.378;2022-10-26T11:45:41;6.93;;;0.90;;
53775;SDS011;44276;49.534;6.378;2022-10-26T11:48:13;4.68;;;0.88;;
53775;SDS011;44276;49.534;6.378;2022-10-26T11:50:49;5.82;;;1.13;;
53775;SDS011;44276;49.534;6.378;2022-10-26T11:53:24;5.15;;;1.35;;
53775;SDS011;44276;49.534;6.378;2022-10-26T11:55:58;5.15;;;0.80;;
53775;SDS011;44276;49.534;6.378;2022-10-26T11:58:31;2.97;;;0.80;;
53775;SDS011;44276;49.534;6.378;2022-10-26T12:01:00;3.75;;;1.13;;
53775;SDS011;44276;49.534;6.378;2022-10-26T12:03:36;2.43;;;0.53;;
53775;SDS011;44276;49.534;6.378;2022-10-26T12:06:11;2.58;;;0.95;;
53775;SDS011;44276;49.534;6.378;2022-10-26T12:08:45;3.28;;;0.80;;
53775;SDS011;44276;49.534;6.378;2022-10-26T12:11:24;6.70;;;1.03;;
53775;SDS011;44276;49.534;6.378;2022-10-26T12:14:08;5.43;;;0.85;;
53775;SDS011;44276;49.534;6.378;2022-10-26T12:16:50;5.45;;;1.50;;
53775;SDS011;44276;49.534;6.378;2022-10-26T12:19:30;4.22;;;0.85;;
53775;SDS011;44276;49.534;6.378;2022-10-26T12:22:09;4.20;;;0.82;;
53775;SDS011;44276;49.534;6.378;2022-10-26T12:24:43;2.38;;;1.15;;
53775;SDS011;44276;49.534;6.378;2022-10-26T12:27:28;2.75;;;0.43;;
53775;SDS011;44276;49.534;6.378;2022-10-26T12:30:21;1.95;;;0.52;;
53775;SDS011;44276;49.534;6.378;2022-10-26T12:33:02;4.78;;;0.90;;
53775;SDS011;44276;49.534;6.378;2022-10-26T12:35:55;5.00;;;0.63;;
53775;SDS011;44276;49.534;6.378;2022-10-26T12:41:26;2.00;;;0.50;;
53775;SDS011;44276;49.534;6.378;2022-10-26T12:44:00;5.60;;;1.30;;
53775;SDS011;44276;49.534;6.378;2022-10-26T12:47:00;4.05;;;0.85;;
53775;SDS011;44276;49.534;6.378;2022-10-26T12:52:46;5.20;;;0.47;;
53775;SDS011;44276;49.534;6.378;2022-10-26T12:58:38;2.65;;;0.90;;
53775;SDS011;44276;49.534;6.378;2022-10-26T13:01:42;2.10;;;0.50;;
53775;SDS011;44276;49.534;6.378;2022-10-26T13:04:24;1.80;;;0.50;;
53775;SDS011;44276;49.534;6.378;2022-10-26T13:07:43;1.73;;;0.57;;
53775;SDS011;44276;49.534;6.378;2022-10-26T13:10:17;5.63;;;0.60;;
53775;SDS011;44276;49.534;6.378;2022-10-26T13:12:50;2.85;;;0.50;;
53775;SDS011;44276;49.534;6.378;2022-10-26T13:15:22;1.67;;;0.50;;
53775;SDS011;44276;49.534;6.378;2022-10-26T13:17:55;2.00;;;0.40;;
53775;SDS011;44276;49.534;6.378;2022-10-26T13:20:33;2.53;;;0.82;;
53775;SDS011;44276;49.534;6.378;2022-10-26T13:23:20;0.88;;;0.40;;
53775;SDS011;44276;49.534;6.378;2022-10-26T13:26:00;2.50;;;0.60;;
53775;SDS011;44276;49.534;6.378;2022-10-26T13:28:33;0.73;;;0.30;;
53775;SDS011;44276;49.534;6.378;2022-10-26T13:34:21;0.95;;;0.40;;
53775;SDS011;44276;49.534;6.378;2022-10-26T13:36:58;2.30;;;0.60;;
53775;SDS011;44276;49.534;6.378;2022-10-26T13:39:40;5.35;;;0.30;;
53775;SDS011;44276;49.534;6.378;2022-10-26T13:42:12;1.17;;;0.22;;
53775;SDS011;44276;49.534;6.378;2022-10-26T13:44:46;0.73;;;0.20;;
53775;SDS011;44276;49.534;6.378;2022-10-26T13:47:23;1.15;;;0.40;;
53775;SDS011;44276;49.534;6.378;2022-10-26T13:49:57;1.50;;;0.40;;
53775;SDS011;44276;49.534;6.378;2022-10-26T13:52:32;2.65;;;0.45;;
53775;SDS011;44276;49.534;6.378;2022-10-26T13:55:06;3.45;;;0.88;;
53775;SDS011;44276;49.534;6.378;2022-10-26T13:57:46;3.92;;;0.70;;
53775;SDS011;44276;49.534;6.378;2022-10-26T14:00:35;4.82;;;0.40;;
53775;SDS011;44276;49.534;6.378;2022-10-26T14:03:13;1.75;;;0.40;;
53775;SDS011;44276;49.534;6.378;2022-10-26T14:05:46;3.50;;;0.63;;
53775;SDS011;44276;49.534;6.378;2022-10-26T14:08:17;2.97;;;0.30;;
53775;SDS011;44276;49.534;6.378;2022-10-26T14:10:51;1.75;;;0.47;;
53775;SDS011;44276;49.534;6.378;2022-10-26T14:13:24;3.33;;;0.93;;
53775;SDS011;44276;49.534;6.378;2022-10-26T14:15:56;3.95;;;0.40;;
53775;SDS011;44276;49.534;6.378;2022-10-26T14:18:26;2.20;;;0.35;;
53775;SDS011;44276;49.534;6.378;2022-10-26T14:21:00;1.60;;;0.40;;
53775;SDS011;44276;49.534;6.378;2022-10-26T14:23:32;3.03;;;0.50;;
53775;SDS011;44276;49.534;6.378;2022-10-26T14:26:03;1.15;;;0.40;;
53775;SDS011;44276;49.534;6.378;2022-10-26T14:28:37;1.60;;;0.40;;
53775;SDS011;44276;49.534;6.378;2022-10-26T14:31:20;1.90;;;0.40;;
53775;SDS011;44276;49.534;6.378;2022-10-26T14:33:51;2.53;;;0.30;;
53775;SDS011;44276;49.534;6.378;2022-10-26T14:36:22;1.98;;;0.43;;
53775;SDS011;44276;49.534;6.378;2022-10-26T14:39:00;4.93;;;0.60;;
53775;SDS011;44276;49.534;6.378;2022-10-26T14:41:35;3.65;;;0.47;;
53775;SDS011;44276;49.534;6.378;2022-10-26T14:44:05;2.72;;;0.60;;
53775;SDS011;44276;49.534;6.378;2022-10-26T14:46:46;5.20;;;0.95;;
53775;SDS011;44276;49.534;6.378;2022-10-26T14:49:16;4.10;;;0.50;;
53775;SDS011;44276;49.534;6.378;2022-10-26T14:51:48;1.90;;;0.47;;
53775;SDS011;44276;49.534;6.378;2022-10-26T14:54:24;3.15;;;0.60;;
53775;SDS011;44276;49.534;6.378;2022-10-26T14:56:56;3.42;;;0.43;;
53775;SDS011;44276;49.534;6.378;2022-10-26T14:59:28;1.23;;;0.32;;
53775;SDS011;44276;49.534;6.378;2022-10-26T15:01:59;4.82;;;0.50;;
53775;SDS011;44276;49.534;6.378;2022-10-26T15:04:55;1.58;;;0.30;;
53775;SDS011;44276;49.534;6.378;2022-10-26T15:07:33;1.15;;;0.43;;
53775;SDS011;44276;49.534;6.378;2022-10-26T15:10:03;4.03;;;0.47;;
53775;SDS011;44276;49.534;6.378;2022-10-26T15:12:34;3.85;;;0.70;;
53775;SDS011;44276;49.534;6.378;2022-10-26T15:15:09;0.25;;;0.20;;
53775;SDS011;44276;49.534;6.378;2022-10-26T15:17:49;1.08;;;0.55;;
53775;SDS011;44276;49.534;6.378;2022-10-26T15:20:21;1.77;;;0.50;;
53775;SDS011;44276;49.534;6.378;2022-10-26T15:22:54;1.02;;;0.40;;
53775;SDS011;44276;49.534;6.378;2022-10-26T15:25:26;2.50;;;0.50;;
53775;SDS011;44276;49.534;6.378;2022-10-26T15:28:08;4.10;;;0.65;;
53775;SDS011;44276;49.534;6.378;2022-10-26T15:30:38;0.73;;;0.30;;
53775;SDS011;44276;49.534;6.378;2022-10-26T15:33:16;1.60;;;0.50;;
53775;SDS011;44276;49.534;6.378;2022-10-26T15:35:47;1.77;;;1.02;;
53775;SDS011;44276;49.534;6.378;2022-10-26T15:38:16;1.20;;;0.43;;
53775;SDS011;44276;49.534;6.378;2022-10-26T15:40:45;0.85;;;0.55;;
53775;SDS011;44276;49.534;6.378;2022-10-26T15:43:16;1.25;;;0.30;;
53775;SDS011;44276;49.534;6.378;2022-10-26T15:45:45;5.47;;;0.55;;
53775;SDS011;44276;49.534;6.378;2022-10-26T15:48:15;1.00;;;0.55;;